Terminal Aerodrome Forecast
Issued by NWS

Home | Current Version | Previous Version | Text Only | Print | Product List | Glossary On
Versions: 1 2 3 4 5 6 7 8 9 10 11 12 13 14 15 16 17 18 19 20 21 22
295
FTUS44 KLZK 181734
TAFLLQ
TAF
KLLQ 181734Z 1818/1918 23012G22KT P6SM VCSH SCT020 OVC050
      WS020/24050KT
     FM182200 30014G25KT P6SM SCT020 BKN050
     FM190400 33010KT P6SM SCT030 SCT250=

USA.gov is the U.S. government's official web portal to all federal, state and local government web resources and services.